createdAt,value
2023-04-29T04:55:13.162Z,68.10
2023-04-29T05:00:18.384Z,69.30
2023-04-29T05:05:21.914Z,67.50
2023-04-29T05:10:27.350Z,65.40
2023-04-29T05:15:30.788Z,64.00
2023-04-29T05:20:34.470Z,63.10
2023-04-29T05:25:39.242Z,62.30
2023-04-29T05:30:44.144Z,61.90
2023-04-29T05:35:48.015Z,61.50
2023-04-29T05:40:53.314Z,61.60
2023-04-29T05:45:56.993Z,61.80
2023-04-29T05:51:00.451Z,61.70
2023-04-29T05:56:08.317Z,61.80
2023-04-29T06:01:11.957Z,61.40
2023-04-29T06:06:15.607Z,61.00
2023-04-29T06:11:20.640Z,60.30
2023-04-29T06:16:24.110Z,59.80
2023-04-29T06:21:28.850Z,59.40
2023-04-29T06:26:33.613Z,59.10
2023-04-29T06:31:37.669Z,59.10
2023-04-29T06:36:41.681Z,58.90
2023-04-29T06:41:46.909Z,58.90
2023-04-29T06:46:50.584Z,59.00
2023-04-29T06:51:54.058Z,58.90
2023-04-29T06:56:59.256Z,58.90
2023-04-29T07:02:02.949Z,59.00
2023-04-29T07:07:06.974Z,59.10
2023-04-29T07:12:11.744Z,59.60
2023-04-29T07:17:15.433Z,59.70
2023-04-29T07:22:19.574Z,61.00
2023-04-29T07:27:25.045Z,60.80
2023-04-29T07:32:29.189Z,62.20
2023-04-29T07:37:32.931Z,62.60
2023-04-29T07:42:37.946Z,63.90
2023-04-29T07:47:41.450Z,63.10
2023-04-29T07:52:45.055Z,63.70
2023-04-29T07:57:49.888Z,64.00
2023-04-29T08:02:53.597Z,64.00
2023-04-29T08:07:57.150Z,64.50
2023-04-29T08:13:02.224Z,64.20
2023-04-29T08:18:05.698Z,64.30
2023-04-29T08:23:09.157Z,64.30
2023-04-29T08:28:14.095Z,64.30
2023-04-29T08:33:18.045Z,64.20
2023-04-29T08:38:21.534Z,64.20
2023-04-29T08:43:27.497Z,64.20
2023-04-29T08:48:32.104Z,64.50
